sensor_id;sensor_type;location;lat;lon;timestamp;P1;durP1;ratioP1;P2;durP2;ratioP2
6997;SDS011;3539;47.982;12.238;2024-02-21T00:01:55;5.67;;;3.80;;
6997;SDS011;3539;47.982;12.238;2024-02-21T00:04:22;8.23;;;4.23;;
6997;SDS011;3539;47.982;12.238;2024-02-21T00:06:49;5.73;;;3.27;;
6997;SDS011;3539;47.982;12.238;2024-02-21T00:09:15;8.43;;;5.03;;
6997;SDS011;3539;47.982;12.238;2024-02-21T00:11:45;5.60;;;3.57;;
6997;SDS011;3539;47.982;12.238;2024-02-21T00:14:12;6.70;;;3.50;;
6997;SDS011;3539;47.982;12.238;2024-02-21T00:16:39;8.00;;;3.43;;
6997;SDS011;3539;47.982;12.238;2024-02-21T00:19:06;6.87;;;4.37;;
6997;SDS011;3539;47.982;12.238;2024-02-21T00:21:32;7.67;;;3.20;;
6997;SDS011;3539;47.982;12.238;2024-02-21T00:23:59;4.33;;;3.23;;
6997;SDS011;3539;47.982;12.238;2024-02-21T00:26:26;5.73;;;3.30;;
6997;SDS011;3539;47.982;12.238;2024-02-21T00:28:54;7.27;;;3.87;;
6997;SDS011;3539;47.982;12.238;2024-02-21T00:31:21;6.60;;;4.40;;
6997;SDS011;3539;47.982;12.238;2024-02-21T00:33:48;8.03;;;4.80;;
6997;SDS011;3539;47.982;12.238;2024-02-21T00:36:15;6.73;;;3.50;;
6997;SDS011;3539;47.982;12.238;2024-02-21T00:38:42;7.50;;;3.57;;
6997;SDS011;3539;47.982;12.238;2024-02-21T00:41:10;5.40;;;3.37;;
6997;SDS011;3539;47.982;12.238;2024-02-21T00:43:36;11.03;;;4.07;;
6997;SDS011;3539;47.982;12.238;2024-02-21T00:46:06;8.83;;;4.00;;
6997;SDS011;3539;47.982;12.238;2024-02-21T00:48:34;6.10;;;3.43;;
6997;SDS011;3539;47.982;12.238;2024-02-21T00:51:01;7.17;;;4.30;;
6997;SDS011;3539;47.982;12.238;2024-02-21T00:53:27;5.33;;;3.20;;
6997;SDS011;3539;47.982;12.238;2024-02-21T00:55:54;6.57;;;3.37;;
6997;SDS011;3539;47.982;12.238;2024-02-21T00:58:22;3.87;;;2.53;;
6997;SDS011;3539;47.982;12.238;2024-02-21T01:00:48;6.87;;;3.10;;
6997;SDS011;3539;47.982;12.238;2024-02-21T01:03:16;6.70;;;4.10;;
6997;SDS011;3539;47.982;12.238;2024-02-21T01:05:43;3.90;;;2.63;;
6997;SDS011;3539;47.982;12.238;2024-02-21T01:08:11;4.40;;;2.70;;
6997;SDS011;3539;47.982;12.238;2024-02-21T01:10:39;4.67;;;3.20;;
6997;SDS011;3539;47.982;12.238;2024-02-21T01:13:06;4.43;;;2.87;;
6997;SDS011;3539;47.982;12.238;2024-02-21T01:15:33;3.53;;;2.80;;
6997;SDS011;3539;47.982;12.238;2024-02-21T01:18:00;4.37;;;3.07;;
6997;SDS011;3539;47.982;12.238;2024-02-21T01:20:29;5.73;;;3.13;;
6997;SDS011;3539;47.982;12.238;2024-02-21T01:22:55;4.20;;;2.60;;
6997;SDS011;3539;47.982;12.238;2024-02-21T01:25:22;4.13;;;3.03;;
6997;SDS011;3539;47.982;12.238;2024-02-21T01:27:49;6.00;;;2.40;;
6997;SDS011;3539;47.982;12.238;2024-02-21T01:30:17;3.43;;;2.53;;
6997;SDS011;3539;47.982;12.238;2024-02-21T01:32:44;6.00;;;2.70;;
6997;SDS011;3539;47.982;12.238;2024-02-21T01:35:10;4.70;;;3.53;;
6997;SDS011;3539;47.982;12.238;2024-02-21T01:37:38;5.80;;;4.17;;
6997;SDS011;3539;47.982;12.238;2024-02-21T01:40:05;6.60;;;3.30;;
6997;SDS011;3539;47.982;12.238;2024-02-21T01:42:33;8.23;;;3.43;;
6997;SDS011;3539;47.982;12.238;2024-02-21T01:45:04;5.67;;;3.53;;
6997;SDS011;3539;47.982;12.238;2024-02-21T01:47:31;4.90;;;4.27;;
6997;SDS011;3539;47.982;12.238;2024-02-21T01:49:58;4.97;;;2.90;;
6997;SDS011;3539;47.982;12.238;2024-02-21T01:52:27;4.07;;;3.07;;
6997;SDS011;3539;47.982;12.238;2024-02-21T01:54:55;5.67;;;3.60;;
6997;SDS011;3539;47.982;12.238;2024-02-21T01:57:22;6.23;;;3.87;;
6997;SDS011;3539;47.982;12.238;2024-02-21T01:59:49;4.93;;;3.27;;
6997;SDS011;3539;47.982;12.238;2024-02-21T02:02:16;5.87;;;3.03;;
6997;SDS011;3539;47.982;12.238;2024-02-21T02:04:44;6.50;;;3.03;;
6997;SDS011;3539;47.982;12.238;2024-02-21T02:07:11;4.10;;;2.90;;
6997;SDS011;3539;47.982;12.238;2024-02-21T02:09:37;5.67;;;3.30;;
6997;SDS011;3539;47.982;12.238;2024-02-21T02:12:06;5.93;;;4.33;;
6997;SDS011;3539;47.982;12.238;2024-02-21T02:14:33;5.80;;;2.93;;
6997;SDS011;3539;47.982;12.238;2024-02-21T02:17:00;7.33;;;3.17;;
6997;SDS011;3539;47.982;12.238;2024-02-21T02:19:27;7.83;;;4.57;;
6997;SDS011;3539;47.982;12.238;2024-02-21T02:21:54;6.07;;;3.13;;
6997;SDS011;3539;47.982;12.238;2024-02-21T02:24:26;5.77;;;3.83;;
6997;SDS011;3539;47.982;12.238;2024-02-21T02:26:53;4.83;;;2.83;;
6997;SDS011;3539;47.982;12.238;2024-02-21T02:29:20;6.50;;;3.00;;
6997;SDS011;3539;47.982;12.238;2024-02-21T02:31:47;6.07;;;3.17;;
6997;SDS011;3539;47.982;12.238;2024-02-21T02:34:15;4.73;;;3.07;;
6997;SDS011;3539;47.982;12.238;2024-02-21T02:36:41;4.00;;;3.20;;
6997;SDS011;3539;47.982;12.238;2024-02-21T02:39:08;5.47;;;3.53;;
6997;SDS011;3539;47.982;12.238;2024-02-21T02:41:36;6.93;;;3.17;;
6997;SDS011;3539;47.982;12.238;2024-02-21T02:44:03;7.23;;;3.77;;
6997;SDS011;3539;47.982;12.238;2024-02-21T02:46:30;4.80;;;3.20;;
6997;SDS011;3539;47.982;12.238;2024-02-21T02:48:56;4.77;;;2.63;;
6997;SDS011;3539;47.982;12.238;2024-02-21T02:51:23;3.40;;;2.63;;
6997;SDS011;3539;47.982;12.238;2024-02-21T02:53:50;4.43;;;2.80;;
6997;SDS011;3539;47.982;12.238;2024-02-21T02:56:17;6.40;;;4.57;;
6997;SDS011;3539;47.982;12.238;2024-02-21T02:58:45;6.07;;;3.73;;
6997;SDS011;3539;47.982;12.238;2024-02-21T03:01:11;6.13;;;4.07;;
6997;SDS011;3539;47.982;12.238;2024-02-21T03:03:38;7.53;;;3.70;;
6997;SDS011;3539;47.982;12.238;2024-02-21T03:06:05;4.77;;;3.77;;
6997;SDS011;3539;47.982;12.238;2024-02-21T03:08:32;8.63;;;4.13;;
6997;SDS011;3539;47.982;12.238;2024-02-21T03:10:59;5.03;;;3.00;;
6997;SDS011;3539;47.982;12.238;2024-02-21T03:13:26;6.30;;;3.67;;
6997;SDS011;3539;47.982;12.238;2024-02-21T03:15:54;6.23;;;3.40;;
6997;SDS011;3539;47.982;12.238;2024-02-21T03:18:20;5.17;;;3.70;;
6997;SDS011;3539;47.982;12.238;2024-02-21T03:20:47;5.50;;;4.00;;
6997;SDS011;3539;47.982;12.238;2024-02-21T03:23:14;3.30;;;2.67;;
6997;SDS011;3539;47.982;12.238;2024-02-21T03:25:41;5.83;;;4.53;;
6997;SDS011;3539;47.982;12.238;2024-02-21T03:28:07;4.80;;;4.00;;
6997;SDS011;3539;47.982;12.238;2024-02-21T03:30:34;5.40;;;3.00;;
6997;SDS011;3539;47.982;12.238;2024-02-21T03:33:02;4.97;;;3.37;;
6997;SDS011;3539;47.982;12.238;2024-02-21T03:35:29;6.57;;;3.60;;
6997;SDS011;3539;47.982;12.238;2024-02-21T03:37:56;4.23;;;3.00;;
6997;SDS011;3539;47.982;12.238;2024-02-21T03:40:22;5.87;;;4.33;;
6997;SDS011;3539;47.982;12.238;2024-02-21T03:42:49;5.77;;;4.30;;
6997;SDS011;3539;47.982;12.238;2024-02-21T03:45:16;5.20;;;3.33;;
6997;SDS011;3539;47.982;12.238;2024-02-21T03:47:43;4.00;;;2.73;;
6997;SDS011;3539;47.982;12.238;2024-02-21T03:50:11;4.23;;;3.00;;
6997;SDS011;3539;47.982;12.238;2024-02-21T03:52:38;6.20;;;2.73;;
6997;SDS011;3539;47.982;12.238;2024-02-21T03:55:05;4.17;;;2.97;;
6997;SDS011;3539;47.982;12.238;2024-02-21T03:57:32;3.87;;;2.57;;
6997;SDS011;3539;47.982;12.238;2024-02-21T03:59:59;5.90;;;2.77;;
6997;SDS011;3539;47.982;12.238;2024-02-21T04:02:26;4.87;;;2.83;;
6997;SDS011;3539;47.982;12.238;2024-02-21T04:04:53;5.47;;;2.77;;
6997;SDS011;3539;47.982;12.238;2024-02-21T04:07:21;3.43;;;2.50;;
6997;SDS011;3539;47.982;12.238;2024-02-21T04:09:48;5.43;;;3.10;;
6997;SDS011;3539;47.982;12.238;2024-02-21T04:12:14;4.70;;;3.10;;
6997;SDS011;3539;47.982;12.238;2024-02-21T04:14:41;5.87;;;4.50;;
6997;SDS011;3539;47.982;12.238;2024-02-21T04:17:08;6.93;;;5.10;;
6997;SDS011;3539;47.982;12.238;2024-02-21T04:19:34;4.03;;;3.13;;
6997;SDS011;3539;47.982;12.238;2024-02-21T04:22:01;5.23;;;2.87;;
6997;SDS011;3539;47.982;12.238;2024-02-21T04:24:29;4.63;;;3.80;;
6997;SDS011;3539;47.982;12.238;2024-02-21T04:26:56;3.90;;;3.03;;
6997;SDS011;3539;47.982;12.238;2024-02-21T04:29:23;6.30;;;3.73;;
6997;SDS011;3539;47.982;12.238;2024-02-21T04:31:49;4.90;;;2.90;;
6997;SDS011;3539;47.982;12.238;2024-02-21T04:34:16;6.53;;;2.90;;
6997;SDS011;3539;47.982;12.238;2024-02-21T04:36:43;5.87;;;2.70;;
6997;SDS011;3539;47.982;12.238;2024-02-21T04:39:09;4.93;;;2.93;;
6997;SDS011;3539;47.982;12.238;2024-02-21T04:41:38;5.30;;;3.70;;
6997;SDS011;3539;47.982;12.238;2024-02-21T04:44:04;3.67;;;2.93;;
6997;SDS011;3539;47.982;12.238;2024-02-21T04:46:31;4.60;;;3.50;;
6997;SDS011;3539;47.982;12.238;2024-02-21T04:48:58;6.10;;;3.17;;
6997;SDS011;3539;47.982;12.238;2024-02-21T04:51:24;5.03;;;3.13;;
6997;SDS011;3539;47.982;12.238;2024-02-21T04:53:51;3.87;;;2.70;;
6997;SDS011;3539;47.982;12.238;2024-02-21T04:56:18;4.47;;;3.13;;
6997;SDS011;3539;47.982;12.238;2024-02-21T04:58:46;5.83;;;4.40;;
6997;SDS011;3539;47.982;12.238;2024-02-21T05:01:12;5.03;;;4.53;;
6997;SDS011;3539;47.982;12.238;2024-02-21T05:03:39;4.53;;;4.03;;
6997;SDS011;3539;47.982;12.238;2024-02-21T05:06:06;5.17;;;3.60;;
6997;SDS011;3539;47.982;12.238;2024-02-21T05:08:33;3.40;;;2.87;;
6997;SDS011;3539;47.982;12.238;2024-02-21T05:10:59;3.97;;;2.97;;
6997;SDS011;3539;47.982;12.238;2024-02-21T05:13:26;3.40;;;2.77;;
6997;SDS011;3539;47.982;12.238;2024-02-21T05:15:54;15.23;;;11.07;;
6997;SDS011;3539;47.982;12.238;2024-02-21T05:18:21;6.07;;;5.47;;
6997;SDS011;3539;47.982;12.238;2024-02-21T05:20:47;4.87;;;3.83;;
6997;SDS011;3539;47.982;12.238;2024-02-21T05:23:14;7.37;;;3.80;;
6997;SDS011;3539;47.982;12.238;2024-02-21T05:25:41;6.73;;;3.87;;
6997;SDS011;3539;47.982;12.238;2024-02-21T05:28:07;5.67;;;3.90;;
6997;SDS011;3539;47.982;12.238;2024-02-21T05:30:34;4.40;;;3.47;;
6997;SDS011;3539;47.982;12.238;2024-02-21T05:33:05;4.67;;;3.70;;
6997;SDS011;3539;47.982;12.238;2024-02-21T05:35:32;5.50;;;4.90;;
6997;SDS011;3539;47.982;12.238;2024-02-21T05:37:59;4.90;;;3.50;;
6997;SDS011;3539;47.982;12.238;2024-02-21T05:40:25;6.70;;;4.60;;
6997;SDS011;3539;47.982;12.238;2024-02-21T05:42:52;5.57;;;3.47;;
6997;SDS011;3539;47.982;12.238;2024-02-21T05:45:19;4.07;;;2.90;;
6997;SDS011;3539;47.982;12.238;2024-02-21T05:47:46;3.87;;;2.63;;
6997;SDS011;3539;47.982;12.238;2024-02-21T05:50:14;5.30;;;3.70;;
6997;SDS011;3539;47.982;12.238;2024-02-21T05:52:40;4.77;;;3.67;;
6997;SDS011;3539;47.982;12.238;2024-02-21T05:55:07;4.13;;;3.70;;
6997;SDS011;3539;47.982;12.238;2024-02-21T05:57:35;3.70;;;2.80;;
6997;SDS011;3539;47.982;12.238;2024-02-21T06:00:03;9.67;;;4.83;;
6997;SDS011;3539;47.982;12.238;2024-02-21T06:02:30;27.33;;;11.77;;
6997;SDS011;3539;47.982;12.238;2024-02-21T06:04:57;18.90;;;12.83;;
6997;SDS011;3539;47.982;12.238;2024-02-21T06:07:25;8.23;;;4.70;;
6997;SDS011;3539;47.982;12.238;2024-02-21T06:09:52;9.93;;;6.23;;
6997;SDS011;3539;47.982;12.238;2024-02-21T06:12:18;14.47;;;7.20;;
6997;SDS011;3539;47.982;12.238;2024-02-21T06:14:45;15.57;;;6.97;;
6997;SDS011;3539;47.982;12.238;2024-02-21T06:17:12;20.40;;;10.07;;
6997;SDS011;3539;47.982;12.238;2024-02-21T06:19:39;40.53;;;10.70;;
6997;SDS011;3539;47.982;12.238;2024-02-21T06:22:06;31.47;;;8.90;;
6997;SDS011;3539;47.982;12.238;2024-02-21T06:24:35;25.13;;;8.57;;
6997;SDS011;3539;47.982;12.238;2024-02-21T06:27:02;33.37;;;10.27;;
6997;SDS011;3539;47.982;12.238;2024-02-21T06:29:31;28.10;;;8.30;;
6997;SDS011;3539;47.982;12.238;2024-02-21T06:31:57;19.60;;;5.63;;
6997;SDS011;3539;47.982;12.238;2024-02-21T06:34:24;8.80;;;4.03;;
6997;SDS011;3539;47.982;12.238;2024-02-21T06:36:51;12.43;;;4.57;;
6997;SDS011;3539;47.982;12.238;2024-02-21T06:39:17;27.13;;;13.50;;
6997;SDS011;3539;47.982;12.238;2024-02-21T06:41:46;43.23;;;13.97;;
6997;SDS011;3539;47.982;12.238;2024-02-21T06:44:13;43.97;;;21.43;;
6997;SDS011;3539;47.982;12.238;2024-02-21T06:46:39;37.50;;;13.83;;
6997;SDS011;3539;47.982;12.238;2024-02-21T06:49:06;26.60;;;9.27;;
6997;SDS011;3539;47.982;12.238;2024-02-21T06:51:33;13.33;;;6.70;;
6997;SDS011;3539;47.982;12.238;2024-02-21T06:54:02;16.37;;;6.30;;
6997;SDS011;3539;47.982;12.238;2024-02-21T06:56:29;11.33;;;5.60;;
6997;SDS011;3539;47.982;12.238;2024-02-21T06:58:57;8.87;;;5.13;;
6997;SDS011;3539;47.982;12.238;2024-02-21T07:01:24;11.70;;;5.87;;
6997;SDS011;3539;47.982;12.238;2024-02-21T07:03:50;7.27;;;3.80;;
6997;SDS011;3539;47.982;12.238;2024-02-21T07:06:17;9.10;;;4.30;;
6997;SDS011;3539;47.982;12.238;2024-02-21T07:08:44;7.30;;;3.80;;
6997;SDS011;3539;47.982;12.238;2024-02-21T07:11:11;17.40;;;10.43;;
6997;SDS011;3539;47.982;12.238;2024-02-21T07:13:39;18.13;;;9.27;;
6997;SDS011;3539;47.982;12.238;2024-02-21T07:16:07;14.37;;;6.17;;
6997;SDS011;3539;47.982;12.238;2024-02-21T07:18:34;10.87;;;4.53;;
6997;SDS011;3539;47.982;12.238;2024-02-21T07:21:01;10.43;;;4.77;;
6997;SDS011;3539;47.982;12.238;2024-02-21T07:23:27;7.43;;;4.00;;
6997;SDS011;3539;47.982;12.238;2024-02-21T07:25:54;10.33;;;5.63;;
6997;SDS011;3539;47.982;12.238;2024-02-21T07:28:21;7.00;;;4.93;;
6997;SDS011;3539;47.982;12.238;2024-02-21T07:30:48;5.83;;;3.40;;
6997;SDS011;3539;47.982;12.238;2024-02-21T07:33:16;6.03;;;3.07;;
6997;SDS011;3539;47.982;12.238;2024-02-21T07:35:42;3.10;;;2.60;;
6997;SDS011;3539;47.982;12.238;2024-02-21T07:38:10;4.07;;;3.40;;
6997;SDS011;3539;47.982;12.238;2024-02-21T07:40:37;4.60;;;3.03;;
6997;SDS011;3539;47.982;12.238;2024-02-21T07:43:04;5.87;;;3.50;;
6997;SDS011;3539;47.982;12.238;2024-02-21T07:45:31;3.70;;;2.93;;
6997;SDS011;3539;47.982;12.238;2024-02-21T07:47:57;4.07;;;3.47;;
6997;SDS011;3539;47.982;12.238;2024-02-21T07:50:25;4.77;;;2.80;;
6997;SDS011;3539;47.982;12.238;2024-02-21T07:52:52;4.77;;;3.23;;
6997;SDS011;3539;47.982;12.238;2024-02-21T07:55:19;4.43;;;3.00;;
6997;SDS011;3539;47.982;12.238;2024-02-21T07:57:45;4.87;;;3.00;;
6997;SDS011;3539;47.982;12.238;2024-02-21T08:00:12;4.97;;;3.17;;
6997;SDS011;3539;47.982;12.238;2024-02-21T08:02:44;3.93;;;2.57;;
6997;SDS011;3539;47.982;12.238;2024-02-21T08:05:11;6.07;;;3.03;;
6997;SDS011;3539;47.982;12.238;2024-02-21T08:07:39;3.67;;;2.70;;
6997;SDS011;3539;47.982;12.238;2024-02-21T08:10:07;3.33;;;2.90;;
6997;SDS011;3539;47.982;12.238;2024-02-21T08:12:34;7.13;;;2.43;;
6997;SDS011;3539;47.982;12.238;2024-02-21T08:15:01;3.57;;;2.40;;
6997;SDS011;3539;47.982;12.238;2024-02-21T08:17:28;3.10;;;2.80;;
6997;SDS011;3539;47.982;12.238;2024-02-21T08:19:55;4.97;;;2.40;;
6997;SDS011;3539;47.982;12.238;2024-02-21T08:22:22;3.10;;;2.30;;
6997;SDS011;3539;47.982;12.238;2024-02-21T08:24:50;4.67;;;2.30;;
6997;SDS011;3539;47.982;12.238;2024-02-21T08:27:17;4.60;;;2.27;;
6997;SDS011;3539;47.982;12.238;2024-02-21T08:29:43;3.10;;;2.60;;
6997;SDS011;3539;47.982;12.238;2024-02-21T08:32:10;2.93;;;2.53;;
6997;SDS011;3539;47.982;12.238;2024-02-21T08:34:37;3.87;;;2.70;;
6997;SDS011;3539;47.982;12.238;2024-02-21T08:37:03;3.27;;;2.50;;
6997;SDS011;3539;47.982;12.238;2024-02-21T08:39:30;2.90;;;2.37;;
6997;SDS011;3539;47.982;12.238;2024-02-21T08:41:58;3.13;;;2.40;;
6997;SDS011;3539;47.982;12.238;2024-02-21T08:44:27;3.80;;;2.30;;
6997;SDS011;3539;47.982;12.238;2024-02-21T08:46:54;4.47;;;2.40;;
6997;SDS011;3539;47.982;12.238;2024-02-21T08:49:21;4.00;;;2.23;;
6997;SDS011;3539;47.982;12.238;2024-02-21T08:51:47;2.40;;;2.20;;
6997;SDS011;3539;47.982;12.238;2024-02-21T08:54:14;2.53;;;1.77;;
6997;SDS011;3539;47.982;12.238;2024-02-21T08:56:41;2.70;;;1.90;;
6997;SDS011;3539;47.982;12.238;2024-02-21T08:59:10;3.23;;;2.20;;
6997;SDS011;3539;47.982;12.238;2024-02-21T09:01:36;5.33;;;2.03;;
6997;SDS011;3539;47.982;12.238;2024-02-21T09:04:03;2.40;;;2.03;;
6997;SDS011;3539;47.982;12.238;2024-02-21T09:06:30;2.33;;;2.08;;
6997;SDS011;3539;47.982;12.238;2024-02-21T09:08:58;4.10;;;2.00;;
6997;SDS011;3539;47.982;12.238;2024-02-21T09:11:25;2.60;;;2.20;;
6997;SDS011;3539;47.982;12.238;2024-02-21T09:13:52;3.00;;;2.10;;
6997;SDS011;3539;47.982;12.238;2024-02-21T09:16:20;2.90;;;1.87;;
6997;SDS011;3539;47.982;12.238;2024-02-21T09:18:47;2.43;;;1.93;;
6997;SDS011;3539;47.982;12.238;2024-02-21T09:21:14;2.10;;;1.63;;
6997;SDS011;3539;47.982;12.238;2024-02-21T09:23:41;2.53;;;1.90;;
6997;SDS011;3539;47.982;12.238;2024-02-21T09:26:08;2.40;;;2.10;;
6997;SDS011;3539;47.982;12.238;2024-02-21T09:28:38;1.87;;;1.70;;
6997;SDS011;3539;47.982;12.238;2024-02-21T09:31:05;2.40;;;1.90;;
6997;SDS011;3539;47.982;12.238;2024-02-21T09:33:33;3.10;;;1.83;;
6997;SDS011;3539;47.982;12.238;2024-02-21T09:36:00;2.10;;;1.90;;
6997;SDS011;3539;47.982;12.238;2024-02-21T09:38:27;3.07;;;1.83;;
6997;SDS011;3539;47.982;12.238;2024-02-21T09:40:55;2.67;;;2.00;;
6997;SDS011;3539;47.982;12.238;2024-02-21T09:43:25;2.60;;;1.97;;
6997;SDS011;3539;47.982;12.238;2024-02-21T09:45:53;3.17;;;2.10;;
6997;SDS011;3539;47.982;12.238;2024-02-21T09:48:25;2.10;;;1.80;;
6997;SDS011;3539;47.982;12.238;2024-02-21T09:50:58;3.30;;;1.80;;
6997;SDS011;3539;47.982;12.238;2024-02-21T09:53:25;2.10;;;1.90;;
6997;SDS011;3539;47.982;12.238;2024-02-21T09:55:53;3.23;;;1.70;;
6997;SDS011;3539;47.982;12.238;2024-02-21T09:58:20;2.10;;;1.53;;
6997;SDS011;3539;47.982;12.238;2024-02-21T10:00:47;2.00;;;1.47;;
6997;SDS011;3539;47.982;12.238;2024-02-21T10:03:14;2.40;;;1.70;;
6997;SDS011;3539;47.982;12.238;2024-02-21T10:05:45;2.50;;;1.70;;
6997;SDS011;3539;47.982;12.238;2024-02-21T10:08:15;2.30;;;1.60;;
6997;SDS011;3539;47.982;12.238;2024-02-21T10:10:42;2.73;;;1.50;;
6997;SDS011;3539;47.982;12.238;2024-02-21T10:13:09;2.67;;;1.60;;
6997;SDS011;3539;47.982;12.238;2024-02-21T10:15:36;3.00;;;1.80;;
6997;SDS011;3539;47.982;12.238;2024-02-21T10:18:03;2.30;;;1.77;;
6997;SDS011;3539;47.982;12.238;2024-02-21T10:20:31;2.83;;;1.57;;
6997;SDS011;3539;47.982;12.238;2024-02-21T10:23:01;1.93;;;1.40;;
6997;SDS011;3539;47.982;12.238;2024-02-21T10:25:34;2.53;;;1.60;;
6997;SDS011;3539;47.982;12.238;2024-02-21T10:28:03;1.50;;;1.30;;
6997;SDS011;3539;47.982;12.238;2024-02-21T10:30:30;2.93;;;1.53;;
6997;SDS011;3539;47.982;12.238;2024-02-21T10:32:57;4.87;;;1.53;;
6997;SDS011;3539;47.982;12.238;2024-02-21T10:35:27;2.60;;;1.80;;
6997;SDS011;3539;47.982;12.238;2024-02-21T10:37:54;2.30;;;1.60;;
6997;SDS011;3539;47.982;12.238;2024-02-21T10:40:22;1.87;;;1.60;;
6997;SDS011;3539;47.982;12.238;2024-02-21T10:42:52;2.10;;;1.70;;
6997;SDS011;3539;47.982;12.238;2024-02-21T10:45:23;2.47;;;1.63;;
6997;SDS011;3539;47.982;12.238;2024-02-21T10:47:55;2.10;;;1.87;;
6997;SDS011;3539;47.982;12.238;2024-02-21T10:50:24;3.40;;;1.93;;
6997;SDS011;3539;47.982;12.238;2024-02-21T10:52:55;1.87;;;1.30;;
6997;SDS011;3539;47.982;12.238;2024-02-21T10:55:29;1.90;;;1.43;;
6997;SDS011;3539;47.982;12.238;2024-02-21T10:58:03;1.87;;;1.10;;
6997;SDS011;3539;47.982;12.238;2024-02-21T11:00:30;2.37;;;1.50;;
6997;SDS011;3539;47.982;12.238;2024-02-21T11:02:56;2.03;;;1.40;;
6997;SDS011;3539;47.982;12.238;2024-02-21T11:05:24;1.70;;;1.30;;
6997;SDS011;3539;47.982;12.238;2024-02-21T11:07:51;2.90;;;1.40;;
6997;SDS011;3539;47.982;12.238;2024-02-21T11:10:22;1.70;;;1.20;;
6997;SDS011;3539;47.982;12.238;2024-02-21T11:12:52;1.57;;;1.30;;
6997;SDS011;3539;47.982;12.238;2024-02-21T11:15:20;2.97;;;1.10;;
6997;SDS011;3539;47.982;12.238;2024-02-21T11:17:55;1.23;;;1.00;;
6997;SDS011;3539;47.982;12.238;2024-02-21T11:20:31;1.20;;;1.10;;
6997;SDS011;3539;47.982;12.238;2024-02-21T11:22:59;1.47;;;0.70;;
6997;SDS011;3539;47.982;12.238;2024-02-21T11:25:26;1.17;;;0.90;;
6997;SDS011;3539;47.982;12.238;2024-02-21T11:27:58;1.10;;;0.90;;
6997;SDS011;3539;47.982;12.238;2024-02-21T11:30:29;1.57;;;0.90;;
6997;SDS011;3539;47.982;12.238;2024-02-21T11:33:00;1.70;;;1.10;;
6997;SDS011;3539;47.982;12.238;2024-02-21T11:35:30;1.17;;;0.93;;
6997;SDS011;3539;47.982;12.238;2024-02-21T11:38:07;1.20;;;1.10;;
6997;SDS011;3539;47.982;12.238;2024-02-21T11:40:35;1.43;;;1.10;;
6997;SDS011;3539;47.982;12.238;2024-02-21T11:43:02;1.20;;;1.00;;
6997;SDS011;3539;47.982;12.238;2024-02-21T11:45:30;1.20;;;1.10;;
6997;SDS011;3539;47.982;12.238;2024-02-21T11:47:57;0.87;;;0.87;;
6997;SDS011;3539;47.982;12.238;2024-02-21T11:50:25;1.30;;;1.20;;
6997;SDS011;3539;47.982;12.238;2024-02-21T11:52:54;1.10;;;1.00;;
6997;SDS011;3539;47.982;12.238;2024-02-21T11:55:20;2.17;;;1.03;;
6997;SDS011;3539;47.982;12.238;2024-02-21T11:57:48;1.80;;;1.20;;
6997;SDS011;3539;47.982;12.238;2024-02-21T12:00:16;2.13;;;0.87;;
6997;SDS011;3539;47.982;12.238;2024-02-21T12:02:46;1.43;;;1.10;;
6997;SDS011;3539;47.982;12.238;2024-02-21T12:05:13;0.70;;;0.63;;
6997;SDS011;3539;47.982;12.238;2024-02-21T12:07:40;1.60;;;0.80;;
6997;SDS011;3539;47.982;12.238;2024-02-21T12:10:08;1.30;;;0.87;;
6997;SDS011;3539;47.982;12.238;2024-02-21T12:12:35;2.30;;;0.87;;
6997;SDS011;3539;47.982;12.238;2024-02-21T12:15:03;2.03;;;0.90;;
6997;SDS011;3539;47.982;12.238;2024-02-21T12:17:30;0.83;;;0.83;;
6997;SDS011;3539;47.982;12.238;2024-02-21T12:19:58;0.70;;;0.70;;
6997;SDS011;3539;47.982;12.238;2024-02-21T12:22:25;1.03;;;0.93;;
6997;SDS011;3539;47.982;12.238;2024-02-21T12:24:52;2.00;;;0.87;;
6997;SDS011;3539;47.982;12.238;2024-02-21T12:27:20;1.63;;;1.00;;
6997;SDS011;3539;47.982;12.238;2024-02-21T12:29:47;1.93;;;0.90;;
6997;SDS011;3539;47.982;12.238;2024-02-21T12:32:16;1.27;;;1.00;;
6997;SDS011;3539;47.982;12.238;2024-02-21T12:34:43;0.80;;;0.80;;
6997;SDS011;3539;47.982;12.238;2024-02-21T12:37:11;1.00;;;0.90;;
6997;SDS011;3539;47.982;12.238;2024-02-21T12:39:40;2.07;;;0.97;;
6997;SDS011;3539;47.982;12.238;2024-02-21T12:42:07;0.70;;;0.70;;
6997;SDS011;3539;47.982;12.238;2024-02-21T12:44:36;0.80;;;0.80;;
6997;SDS011;3539;47.982;12.238;2024-02-21T12:47:03;1.70;;;0.90;;
6997;SDS011;3539;47.982;12.238;2024-02-21T12:49:30;2.20;;;1.00;;
6997;SDS011;3539;47.982;12.238;2024-02-21T12:51:57;1.10;;;0.80;;
6997;SDS011;3539;47.982;12.238;2024-02-21T12:54:25;1.60;;;1.50;;
6997;SDS011;3539;47.982;12.238;2024-02-21T12:56:52;1.60;;;1.00;;
6997;SDS011;3539;47.982;12.238;2024-02-21T12:59:19;1.17;;;0.90;;
6997;SDS011;3539;47.982;12.238;2024-02-21T13:01:46;0.90;;;0.87;;
6997;SDS011;3539;47.982;12.238;2024-02-21T13:04:12;0.80;;;0.80;;
6997;SDS011;3539;47.982;12.238;2024-02-21T13:06:39;1.73;;;1.20;;
6997;SDS011;3539;47.982;12.238;2024-02-21T13:09:06;1.10;;;1.00;;
6997;SDS011;3539;47.982;12.238;2024-02-21T13:11:37;1.27;;;0.90;;
6997;SDS011;3539;47.982;12.238;2024-02-21T13:14:04;1.20;;;0.93;;
6997;SDS011;3539;47.982;12.238;2024-02-21T13:16:30;0.93;;;0.80;;
6997;SDS011;3539;47.982;12.238;2024-02-21T13:18:59;1.20;;;1.10;;
6997;SDS011;3539;47.982;12.238;2024-02-21T13:21:26;2.37;;;1.00;;
6997;SDS011;3539;47.982;12.238;2024-02-21T13:23:52;1.43;;;1.07;;
6997;SDS011;3539;47.982;12.238;2024-02-21T13:26:19;1.47;;;0.90;;
6997;SDS011;3539;47.982;12.238;2024-02-21T13:28:47;0.80;;;0.80;;
6997;SDS011;3539;47.982;12.238;2024-02-21T13:31:14;1.80;;;0.80;;
6997;SDS011;3539;47.982;12.238;2024-02-21T13:33:41;0.70;;;0.70;;
6997;SDS011;3539;47.982;12.238;2024-02-21T13:36:09;1.00;;;0.90;;
6997;SDS011;3539;47.982;12.238;2024-02-21T13:38:36;1.00;;;0.90;;
6997;SDS011;3539;47.982;12.238;2024-02-21T13:41:04;1.20;;;0.93;;
6997;SDS011;3539;47.982;12.238;2024-02-21T13:43:31;0.60;;;0.60;;
6997;SDS011;3539;47.982;12.238;2024-02-21T13:46:00;0.83;;;0.83;;
6997;SDS011;3539;47.982;12.238;2024-02-21T13:48:30;0.80;;;0.80;;
6997;SDS011;3539;47.982;12.238;2024-02-21T13:50:58;0.87;;;0.87;;
6997;SDS011;3539;47.982;12.238;2024-02-21T13:53:27;1.43;;;0.90;;
6997;SDS011;3539;47.982;12.238;2024-02-21T13:55:54;1.67;;;0.80;;
6997;SDS011;3539;47.982;12.238;2024-02-21T13:58:20;0.83;;;0.83;;
6997;SDS011;3539;47.982;12.238;2024-02-21T14:00:47;2.03;;;0.70;;
6997;SDS011;3539;47.982;12.238;2024-02-21T14:03:16;1.00;;;0.90;;
6997;SDS011;3539;47.982;12.238;2024-02-21T14:05:43;1.97;;;0.93;;
6997;SDS011;3539;47.982;12.238;2024-02-21T14:08:10;0.70;;;0.70;;
6997;SDS011;3539;47.982;12.238;2024-02-21T14:10:36;1.20;;;0.80;;
6997;SDS011;3539;47.982;12.238;2024-02-21T14:13:03;0.70;;;0.70;;
6997;SDS011;3539;47.982;12.238;2024-02-21T14:15:30;1.47;;;0.90;;
6997;SDS011;3539;47.982;12.238;2024-02-21T14:17:56;1.63;;;0.80;;
6997;SDS011;3539;47.982;12.238;2024-02-21T14:20:25;0.97;;;0.70;;
6997;SDS011;3539;47.982;12.238;2024-02-21T14:22:51;1.20;;;1.10;;
6997;SDS011;3539;47.982;12.238;2024-02-21T14:25:18;0.90;;;0.80;;
6997;SDS011;3539;47.982;12.238;2024-02-21T14:27:45;1.17;;;0.90;;
6997;SDS011;3539;47.982;12.238;2024-02-21T14:30:12;1.03;;;0.80;;
6997;SDS011;3539;47.982;12.238;2024-02-21T14:32:40;1.57;;;1.10;;
6997;SDS011;3539;47.982;12.238;2024-02-21T14:35:10;1.10;;;0.83;;
6997;SDS011;3539;47.982;12.238;2024-02-21T14:37:38;1.00;;;0.80;;
6997;SDS011;3539;47.982;12.238;2024-02-21T14:40:05;1.43;;;0.73;;
6997;SDS011;3539;47.982;12.238;2024-02-21T14:42:32;0.73;;;0.73;;
6997;SDS011;3539;47.982;12.238;2024-02-21T14:44:59;1.00;;;0.90;;
6997;SDS011;3539;47.982;12.238;2024-02-21T14:47:29;1.73;;;0.97;;
6997;SDS011;3539;47.982;12.238;2024-02-21T14:49:56;1.13;;;0.80;;
6997;SDS011;3539;47.982;12.238;2024-02-21T14:52:23;1.00;;;0.90;;
6997;SDS011;3539;47.982;12.238;2024-02-21T14:54:53;0.80;;;0.80;;
6997;SDS011;3539;47.982;12.238;2024-02-21T14:57:21;2.20;;;1.03;;
6997;SDS011;3539;47.982;12.238;2024-02-21T14:59:47;1.00;;;0.90;;
6997;SDS011;3539;47.982;12.238;2024-02-21T15:02:15;1.67;;;0.90;;